createdAt,value
2023-05-10T00:00:21.984Z,25.00
2023-05-10T00:01:22.007Z,25.00
2023-05-10T00:02:22.075Z,25.00
2023-05-10T00:03:22.158Z,0.00
2023-05-10T00:04:22.134Z,0.00
2023-05-10T00:05:22.175Z,0.00
2023-05-10T00:06:22.212Z,0.00
2023-05-10T00:07:22.265Z,0.00
2023-05-10T00:08:22.304Z,0.00
2023-05-10T00:09:22.351Z,0.00
2023-05-10T00:10:22.397Z,14.97
2023-05-10T00:11:23.194Z,25.29
2023-05-10T00:12:22.534Z,25.00
2023-05-10T00:13:22.604Z,25.10
2023-05-10T00:14:22.647Z,25.30
2023-05-10T00:15:22.750Z,25.00
2023-05-10T00:16:22.823Z,24.16
2023-05-10T00:17:22.765Z,25.81
2023-05-10T00:18:22.845Z,25.36
2023-05-10T00:19:22.877Z,26.97
2023-05-10T00:20:22.927Z,25.43
2023-05-10T00:21:22.979Z,23.59
2023-05-10T00:22:23.032Z,28.25
2023-05-10T00:23:23.079Z,25.00
2023-05-10T00:24:23.132Z,26.60
2023-05-10T00:25:23.206Z,27.29
2023-05-10T00:26:23.253Z,26.39
2023-05-10T00:27:23.323Z,26.84
2023-05-10T00:28:23.390Z,27.23
2023-05-10T00:29:23.411Z,27.19
2023-05-10T00:30:23.476Z,27.33
2023-05-10T00:31:23.544Z,28.47
2023-05-10T00:32:23.650Z,28.41
2023-05-10T00:33:23.611Z,25.72
2023-05-10T00:34:23.666Z,26.90
2023-05-10T00:35:23.735Z,28.58
2023-05-10T00:36:23.758Z,26.49
2023-05-10T00:37:23.822Z,28.73
2023-05-10T00:38:23.847Z,25.44
2023-05-10T00:39:23.890Z,30.56
2023-05-10T00:40:23.932Z,29.95
2023-05-10T00:41:23.963Z,29.72
2023-05-10T00:42:24.017Z,27.78
2023-05-10T00:43:24.060Z,25.10
2023-05-10T00:44:24.206Z,27.08
2023-05-10T00:45:24.179Z,25.00
2023-05-10T00:46:24.273Z,27.80
2023-05-10T00:47:24.292Z,28.56
2023-05-10T00:48:24.331Z,28.57
2023-05-10T00:49:24.385Z,27.49
2023-05-10T00:50:24.452Z,27.05
2023-05-10T00:51:24.498Z,28.58
2023-05-10T00:52:24.491Z,27.92
2023-05-10T00:53:24.555Z,29.71
2023-05-10T00:54:24.585Z,29.88
2023-05-10T00:55:24.617Z,27.39
2023-05-10T00:56:24.680Z,25.69
2023-05-10T00:57:24.686Z,28.13
2023-05-10T00:58:24.746Z,28.04
2023-05-10T00:59:24.775Z,27.29
2023-05-10T01:00:24.819Z,26.84
2023-05-10T01:01:24.860Z,27.15
2023-05-10T01:02:24.961Z,29.76
2023-05-10T01:03:24.913Z,25.03
2023-05-10T01:04:24.932Z,27.09
2023-05-10T01:05:24.952Z,25.88
2023-05-10T01:06:24.973Z,32.49
2023-05-10T01:07:24.992Z,30.20
2023-05-10T01:08:25.026Z,26.01
2023-05-10T01:09:25.061Z,30.88
2023-05-10T01:10:25.088Z,32.96
2023-05-10T01:11:25.129Z,30.89
2023-05-10T01:12:25.292Z,30.58
2023-05-10T01:13:25.288Z,29.96
2023-05-10T01:14:25.253Z,32.02
2023-05-10T01:15:25.293Z,30.63
2023-05-10T01:16:25.543Z,29.58
2023-05-10T01:17:25.418Z,30.20
2023-05-10T01:18:25.456Z,29.24
2023-05-10T01:19:25.510Z,31.60
2023-05-10T01:20:25.547Z,30.75
2023-05-10T01:21:25.565Z,32.89
2023-05-10T01:22:25.598Z,27.88
2023-05-10T01:23:25.641Z,31.49
2023-05-10T01:24:25.671Z,33.75
2023-05-10T01:25:25.712Z,31.10
2023-05-10T01:26:25.766Z,33.08
2023-05-10T01:27:25.814Z,31.03
2023-05-10T01:28:25.856Z,30.80
2023-05-10T01:29:25.914Z,30.31
2023-05-10T01:30:26.147Z,30.95
2023-05-10T01:31:26.016Z,33.88
2023-05-10T01:32:26.108Z,32.20
2023-05-10T01:33:26.053Z,31.44
2023-05-10T01:34:26.086Z,32.39
2023-05-10T01:35:26.139Z,32.88
2023-05-10T01:36:26.155Z,32.75
2023-05-10T01:37:26.187Z,30.86
2023-05-10T01:38:26.210Z,30.83
2023-05-10T01:39:26.233Z,34.26
2023-05-10T01:40:26.292Z,31.99
2023-05-10T01:41:26.294Z,34.64
2023-05-10T01:42:26.311Z,32.06
2023-05-10T01:43:26.332Z,31.38
2023-05-10T01:44:26.349Z,30.68
2023-05-10T01:45:26.371Z,32.05
2023-05-10T01:46:26.423Z,34.51
2023-05-10T01:47:26.442Z,33.32
2023-05-10T01:48:26.481Z,31.04
2023-05-10T01:49:26.484Z,31.77
2023-05-10T01:50:26.502Z,33.03
2023-05-10T01:51:26.578Z,30.51
2023-05-10T01:52:26.559Z,33.38
2023-05-10T01:53:26.605Z,30.96
2023-05-10T01:54:26.616Z,31.54
2023-05-10T01:55:26.654Z,31.50
2023-05-10T01:56:26.677Z,30.53
2023-05-10T01:57:26.697Z,33.67
2023-05-10T01:58:26.701Z,29.28
2023-05-10T01:59:26.726Z,31.43
2023-05-10T02:00:26.754Z,31.85
2023-05-10T02:01:26.793Z,30.85
2023-05-10T02:02:26.920Z,31.53
2023-05-10T02:03:26.883Z,29.65
2023-05-10T02:04:26.928Z,34.25
2023-05-10T02:05:26.939Z,31.67
2023-05-10T02:06:26.973Z,30.75
2023-05-10T02:07:27.006Z,33.63
2023-05-10T02:08:27.019Z,33.18
2023-05-10T02:09:27.047Z,27.93
2023-05-10T02:10:27.076Z,32.22
2023-05-10T02:11:27.087Z,30.18
2023-05-10T02:12:27.118Z,29.70
2023-05-10T02:13:27.302Z,27.66
2023-05-10T02:14:27.156Z,30.95
2023-05-10T02:15:27.177Z,30.80
2023-05-10T02:16:27.236Z,32.47
2023-05-10T02:17:27.248Z,28.38
2023-05-10T02:18:27.253Z,29.82
2023-05-10T02:19:27.256Z,31.13
2023-05-10T02:20:27.293Z,30.04
2023-05-10T02:21:27.294Z,30.22
2023-05-10T02:22:27.324Z,30.37
2023-05-10T02:23:27.330Z,30.18
2023-05-10T02:24:27.355Z,33.50
2023-05-10T02:25:27.358Z,30.92
2023-05-10T02:26:27.362Z,30.71
2023-05-10T02:27:27.383Z,28.57
2023-05-10T02:28:27.392Z,29.29
2023-05-10T02:29:27.395Z,31.69
2023-05-10T02:30:27.414Z,29.98
2023-05-10T02:31:27.482Z,30.65
2023-05-10T02:32:27.426Z,29.33
2023-05-10T02:33:27.417Z,31.33
2023-05-10T02:34:27.426Z,31.67
2023-05-10T02:35:27.420Z,31.64
2023-05-10T02:36:27.442Z,31.88
2023-05-10T02:37:27.430Z,29.38
2023-05-10T02:38:27.433Z,28.52
2023-05-10T02:39:27.464Z,29.60
2023-05-10T02:40:28.948Z,31.28
2023-05-10T02:41:27.534Z,30.34
2023-05-10T02:42:27.535Z,28.49
2023-05-10T02:43:27.552Z,32.38
2023-05-10T02:44:27.551Z,33.00
2023-05-10T02:45:27.564Z,32.12
2023-05-10T02:46:27.652Z,30.04
2023-05-10T02:47:27.603Z,28.61
2023-05-10T02:48:27.607Z,32.04
2023-05-10T02:49:27.633Z,29.27
2023-05-10T02:50:27.628Z,32.12
2023-05-10T02:51:27.653Z,29.81
2023-05-10T02:52:27.761Z,31.93
2023-05-10T02:53:27.681Z,33.55
2023-05-10T02:54:27.685Z,30.21
2023-05-10T02:55:27.680Z,31.31
2023-05-10T02:56:27.701Z,30.13
2023-05-10T02:57:27.700Z,28.47
2023-05-10T02:58:27.705Z,30.60
2023-05-10T02:59:27.700Z,28.91
2023-05-10T03:00:27.704Z,29.59
2023-05-10T03:01:27.721Z,29.44
2023-05-10T03:02:27.720Z,29.63
2023-05-10T03:03:27.706Z,30.30
2023-05-10T03:04:27.731Z,29.02
2023-05-10T03:05:27.709Z,29.50
2023-05-10T03:06:27.716Z,33.13
2023-05-10T03:07:27.728Z,30.54
2023-05-10T03:08:27.758Z,29.45
2023-05-10T03:09:27.725Z,30.09
2023-05-10T03:10:27.719Z,29.65
2023-05-10T03:11:27.714Z,32.07
2023-05-10T03:12:27.733Z,31.54
2023-05-10T03:13:27.882Z,31.94
2023-05-10T03:14:27.748Z,30.66
2023-05-10T03:15:27.754Z,30.61
2023-05-10T03:16:27.885Z,33.17
2023-05-10T03:17:27.854Z,30.88
2023-05-10T03:18:27.808Z,31.36
2023-05-10T03:19:27.814Z,29.18
2023-05-10T03:20:27.820Z,31.10
2023-05-10T03:21:27.824Z,29.41
2023-05-10T03:22:27.840Z,29.60
2023-05-10T03:23:27.830Z,30.35
2023-05-10T03:24:27.871Z,32.20
2023-05-10T03:25:27.849Z,27.95
2023-05-10T03:26:27.884Z,29.68
2023-05-10T03:27:27.856Z,29.43
2023-05-10T03:28:27.862Z,29.82
2023-05-10T03:29:27.862Z,30.86
2023-05-10T03:30:27.865Z,28.86
2023-05-10T03:31:27.968Z,30.52
2023-05-10T03:32:27.903Z,26.39
2023-05-10T03:33:27.882Z,28.97
2023-05-10T03:34:27.880Z,29.47
2023-05-10T03:35:27.895Z,28.24
2023-05-10T03:36:27.893Z,27.88
2023-05-10T03:37:27.905Z,31.51
2023-05-10T03:38:30.251Z,28.70
2023-05-10T03:39:27.897Z,32.48
2023-05-10T03:40:27.920Z,33.74
2023-05-10T03:41:27.877Z,30.94
2023-05-10T03:42:27.870Z,31.87
2023-05-10T03:43:27.857Z,29.89
2023-05-10T03:44:27.859Z,30.51
2023-05-10T03:45:27.852Z,30.00
2023-05-10T03:46:27.882Z,27.70
2023-05-10T03:47:27.859Z,30.44
2023-05-10T03:48:27.825Z,30.60
2023-05-10T03:49:27.828Z,27.66
2023-05-10T03:50:27.825Z,32.38
2023-05-10T03:51:27.792Z,33.32
2023-05-10T03:52:27.806Z,27.19
2023-05-10T03:53:27.805Z,31.99
2023-05-10T03:54:27.776Z,30.35
2023-05-10T03:55:27.794Z,28.66
2023-05-10T03:56:27.832Z,30.98
2023-05-10T03:57:27.753Z,28.11
2023-05-10T03:58:27.751Z,29.21
2023-05-10T03:59:27.750Z,28.32
2023-05-10T04:00:27.738Z,28.92
2023-05-10T04:01:27.730Z,32.02
2023-05-10T04:02:27.861Z,29.45
2023-05-10T04:03:27.822Z,30.19
2023-05-10T04:04:27.707Z,27.96
2023-05-10T04:05:27.725Z,30.47
2023-05-10T04:06:27.726Z,28.83
2023-05-10T04:07:27.692Z,29.42
2023-05-10T04:08:27.675Z,28.01
2023-05-10T04:09:27.670Z,28.35
2023-05-10T04:10:27.700Z,29.08
2023-05-10T04:11:27.646Z,29.26
2023-05-10T04:12:27.675Z,26.60
2023-05-10T04:13:27.703Z,29.79
2023-05-10T04:14:27.626Z,29.14
2023-05-10T04:15:27.618Z,28.77
2023-05-10T04:16:27.635Z,29.99
2023-05-10T04:17:27.622Z,30.12
2023-05-10T04:18:27.599Z,28.94
2023-05-10T04:19:27.594Z,29.13
2023-05-10T04:20:27.580Z,31.04
2023-05-10T04:21:27.595Z,29.56
2023-05-10T04:22:27.573Z,34.48
2023-05-10T04:23:27.564Z,28.95
2023-05-10T04:24:27.561Z,30.30
2023-05-10T04:25:27.546Z,28.16
2023-05-10T04:26:27.536Z,27.85
2023-05-10T04:27:27.550Z,31.24
2023-05-10T04:28:27.546Z,29.04
2023-05-10T04:29:27.537Z,28.11
2023-05-10T04:30:27.515Z,26.79
2023-05-10T04:31:27.531Z,28.76
2023-05-10T04:32:27.520Z,28.87
2023-05-10T04:33:27.487Z,28.57
2023-05-10T04:34:27.485Z,29.73
2023-05-10T04:35:27.479Z,28.40
2023-05-10T04:36:27.471Z,30.47
2023-05-10T04:37:27.467Z,31.47
2023-05-10T04:38:27.458Z,29.49
2023-05-10T04:39:27.461Z,25.32
2023-05-10T04:40:27.441Z,28.12
2023-05-10T04:41:27.430Z,29.15
2023-05-10T04:42:27.460Z,29.26
2023-05-10T04:43:27.424Z,28.80
2023-05-10T04:44:27.438Z,30.04
2023-05-10T04:45:27.426Z,31.23
2023-05-10T04:46:27.425Z,27.48
2023-05-10T04:47:27.424Z,28.96
2023-05-10T04:48:27.401Z,27.12
2023-05-10T04:49:27.384Z,27.23
2023-05-10T04:50:27.375Z,31.13
2023-05-10T04:51:27.364Z,27.12
2023-05-10T04:52:27.356Z,31.52
2023-05-10T04:53:27.354Z,27.01
2023-05-10T04:54:27.345Z,31.06
2023-05-10T04:55:27.336Z,28.23
2023-05-10T04:56:27.356Z,27.51
2023-05-10T04:57:27.364Z,29.29
2023-05-10T04:58:27.373Z,27.82
2023-05-10T04:59:27.375Z,30.47
2023-05-10T05:00:27.416Z,29.63
2023-05-10T05:01:27.421Z,28.26
2023-05-10T05:02:27.449Z,30.84
2023-05-10T05:03:27.492Z,30.01
2023-05-10T05:04:27.429Z,28.99
2023-05-10T05:05:27.441Z,30.86
2023-05-10T05:06:27.468Z,27.88
2023-05-10T05:07:27.489Z,28.87
2023-05-10T05:08:27.503Z,30.35
2023-05-10T05:09:27.542Z,31.04
2023-05-10T05:10:27.500Z,33.71
2023-05-10T05:11:27.522Z,25.36
2023-05-10T05:12:27.585Z,29.14
2023-05-10T05:13:27.684Z,29.50
2023-05-10T05:14:27.560Z,27.42
2023-05-10T05:15:27.584Z,28.53
2023-05-10T05:16:27.756Z,29.06
2023-05-10T05:17:27.652Z,27.86
2023-05-10T05:18:27.606Z,29.33
2023-05-10T05:19:27.700Z,28.02
2023-05-10T05:20:27.660Z,28.09
2023-05-10T05:21:27.669Z,27.51
2023-05-10T05:22:27.657Z,31.55
2023-05-10T05:23:27.698Z,29.11
2023-05-10T05:24:27.713Z,29.72
2023-05-10T05:25:27.712Z,31.35
2023-05-10T05:26:27.724Z,36.48
2023-05-10T05:27:27.752Z,32.25
2023-05-10T05:28:27.723Z,31.35
2023-05-10T05:29:27.755Z,33.26
2023-05-10T05:30:27.781Z,35.52
2023-05-10T05:31:27.837Z,35.59
2023-05-10T05:32:27.842Z,38.00
2023-05-10T05:33:27.785Z,39.11
2023-05-10T05:34:27.799Z,37.75
2023-05-10T05:35:27.819Z,40.37
2023-05-10T05:36:27.812Z,39.78
2023-05-10T05:37:28.923Z,40.88
2023-05-10T05:38:27.834Z,41.16
2023-05-10T05:39:27.826Z,45.83
2023-05-10T05:40:27.840Z,45.06
2023-05-10T05:41:28.235Z,46.29
2023-05-10T05:42:27.834Z,45.57
2023-05-10T05:43:27.851Z,45.71
2023-05-10T05:44:28.198Z,45.57
2023-05-10T05:45:27.852Z,46.52
2023-05-10T05:46:27.900Z,47.18
2023-05-10T05:47:27.853Z,53.32
2023-05-10T05:48:27.883Z,55.45
2023-05-10T05:49:31.498Z,52.16
2023-05-10T05:50:28.205Z,52.42
2023-05-10T05:51:27.869Z,52.79
2023-05-10T05:52:27.863Z,54.70
2023-05-10T05:53:27.866Z,58.28
2023-05-10T05:54:28.205Z,63.25
2023-05-10T05:55:27.837Z,66.42
2023-05-10T05:56:27.815Z,68.65
2023-05-10T05:57:27.804Z,74.78
2023-05-10T05:58:28.214Z,74.75
2023-05-10T05:59:28.230Z,76.98
2023-05-10T06:00:27.833Z,77.15
2023-05-10T06:01:27.804Z,76.45
2023-05-10T06:02:27.839Z,85.42
2023-05-10T06:03:27.885Z,100.75
2023-05-10T06:04:27.362Z,100.80
2023-05-10T06:05:28.801Z,106.35
2023-05-10T06:06:27.763Z,111.43
2023-05-10T06:07:28.439Z,108.08
2023-05-10T06:08:27.754Z,111.08
2023-05-10T06:09:27.736Z,114.88
2023-05-10T06:10:27.810Z,122.57
2023-05-10T06:11:27.735Z,128.99
2023-05-10T06:12:28.212Z,136.32
2023-05-10T06:13:27.777Z,138.86
2023-05-10T06:14:28.250Z,142.46
2023-05-10T06:15:28.229Z,146.06
2023-05-10T06:16:27.902Z,152.18
2023-05-10T06:17:27.924Z,154.52
2023-05-10T06:18:27.947Z,165.33
2023-05-10T06:19:27.992Z,163.70
2023-05-10T06:20:28.310Z,170.25
2023-05-10T06:21:28.074Z,171.11
2023-05-10T06:22:28.133Z,178.09
2023-05-10T06:23:28.168Z,181.65
2023-05-10T06:24:28.229Z,188.26
2023-05-10T06:25:28.237Z,189.78
2023-05-10T06:26:28.281Z,195.94
2023-05-10T06:27:28.313Z,196.14
2023-05-10T06:28:28.338Z,199.47
2023-05-10T06:29:28.772Z,203.56
2023-05-10T06:30:28.507Z,206.23
2023-05-10T06:31:28.450Z,206.27
2023-05-10T06:32:28.494Z,212.04
2023-05-10T06:33:28.476Z,215.27
2023-05-10T06:34:28.737Z,220.30
2023-05-10T06:35:28.536Z,222.70
2023-05-10T06:36:28.775Z,222.36
2023-05-10T06:37:28.579Z,228.30
2023-05-10T06:38:28.725Z,232.14
2023-05-10T06:39:28.633Z,233.48
2023-05-10T06:40:28.634Z,236.43
2023-05-10T06:41:28.666Z,243.25
2023-05-10T06:42:28.682Z,244.94
2023-05-10T06:43:28.736Z,245.82
2023-05-10T06:44:28.725Z,246.58
2023-05-10T06:45:29.238Z,250.00
2023-05-10T06:46:28.770Z,248.14
2023-05-10T06:47:28.819Z,249.76
2023-05-10T06:48:28.808Z,242.17
2023-05-10T06:49:29.241Z,242.74
2023-05-10T06:50:29.246Z,242.42
2023-05-10T06:51:28.853Z,242.21
2023-05-10T06:52:28.918Z,238.40
2023-05-10T06:53:28.931Z,239.22
2023-05-10T06:54:29.243Z,239.62
2023-05-10T06:55:36.390Z,240.88
2023-05-10T06:56:28.942Z,241.32
2023-05-10T06:57:31.672Z,242.33
2023-05-10T06:58:29.236Z,241.51
2023-05-10T06:59:29.978Z,242.35
2023-05-10T07:00:36.425Z,244.16
2023-05-10T07:01:28.940Z,241.53
2023-05-10T07:02:29.040Z,243.55
2023-05-10T07:03:28.892Z,245.33
2023-05-10T07:04:29.304Z,248.11
2023-05-10T07:05:29.133Z,250.16
2023-05-10T07:06:33.543Z,245.89
2023-05-10T07:07:28.881Z,246.39
2023-05-10T07:08:28.887Z,247.13
2023-05-10T07:09:28.856Z,246.13
2023-05-10T07:10:29.251Z,246.92
2023-05-10T07:11:28.839Z,244.12
2023-05-10T07:12:28.872Z,243.15
2023-05-10T07:13:28.903Z,242.00
2023-05-10T07:14:29.244Z,239.97
2023-05-10T07:15:28.816Z,242.92
2023-05-10T07:16:29.277Z,239.30
2023-05-10T07:17:28.942Z,240.88
2023-05-10T07:18:28.839Z,238.24
2023-05-10T07:19:28.804Z,236.76
2023-05-10T07:20:28.781Z,237.71
2023-05-10T07:21:29.336Z,235.51
2023-05-10T07:22:28.765Z,234.68
2023-05-10T07:23:28.757Z,234.60
2023-05-10T07:24:28.775Z,235.86
2023-05-10T07:25:28.748Z,232.21
2023-05-10T07:26:28.747Z,232.67
2023-05-10T07:27:28.752Z,231.34
2023-05-10T07:28:28.755Z,232.14
2023-05-10T07:29:28.748Z,230.22
2023-05-10T07:30:28.724Z,229.57
2023-05-10T07:31:28.777Z,231.88
2023-05-10T07:32:29.377Z,228.55
2023-05-10T07:33:32.037Z,228.02
2023-05-10T07:34:28.823Z,228.19
2023-05-10T07:35:29.276Z,227.55
2023-05-10T07:36:28.853Z,224.55
2023-05-10T07:37:28.808Z,222.08
2023-05-10T07:38:28.804Z,225.52
2023-05-10T07:39:28.832Z,228.10
2023-05-10T07:40:29.282Z,224.31
2023-05-10T07:41:28.804Z,228.58
2023-05-10T07:42:28.805Z,231.88
2023-05-10T07:43:28.806Z,229.33
2023-05-10T07:44:29.300Z,228.23
2023-05-10T07:45:29.951Z,225.90
2023-05-10T07:46:28.873Z,238.49
2023-05-10T07:47:30.081Z,238.78
2023-05-10T07:48:28.716Z,234.39
2023-05-10T07:49:28.760Z,240.89
2023-05-10T07:50:28.806Z,240.76
2023-05-10T07:51:28.819Z,243.14
2023-05-10T07:52:29.098Z,247.77
2023-05-10T07:53:28.863Z,249.60
2023-05-10T07:54:29.276Z,246.47
2023-05-10T07:55:28.929Z,249.35
2023-05-10T07:56:28.992Z,247.26
2023-05-10T07:57:29.016Z,249.05
2023-05-10T07:58:30.042Z,250.01
2023-05-10T07:59:29.277Z,250.00
2023-05-10T08:00:29.122Z,245.46
2023-05-10T08:01:29.283Z,244.57
2023-05-10T08:02:29.219Z,244.43
2023-05-10T08:03:29.294Z,241.42
2023-05-10T08:04:29.274Z,239.06
2023-05-10T08:05:29.293Z,241.21
2023-05-10T08:06:29.310Z,242.13
2023-05-10T08:07:29.326Z,238.24
2023-05-10T08:08:29.373Z,240.23
2023-05-10T08:09:29.406Z,237.51
2023-05-10T08:10:29.440Z,240.28
2023-05-10T08:11:29.495Z,238.39
2023-05-10T08:12:29.567Z,239.09
2023-05-10T08:13:29.564Z,240.28
2023-05-10T08:14:29.604Z,240.55
2023-05-10T08:15:29.652Z,240.14
2023-05-10T08:16:29.930Z,238.73
2023-05-10T08:17:29.783Z,235.43
2023-05-10T08:18:29.820Z,236.55
2023-05-10T08:19:29.822Z,234.62
2023-05-10T08:20:30.269Z,236.24
2023-05-10T08:21:29.928Z,236.61
2023-05-10T08:22:29.957Z,235.40
2023-05-10T08:23:30.004Z,235.53
2023-05-10T08:24:30.053Z,233.90
2023-05-10T08:25:30.276Z,232.35
2023-05-10T08:26:30.162Z,232.90
2023-05-10T08:27:30.205Z,232.64
2023-05-10T08:28:30.283Z,231.95
2023-05-10T08:29:32.818Z,230.97
2023-05-10T08:30:30.770Z,231.29
2023-05-10T08:31:30.332Z,231.32
2023-05-10T08:32:30.324Z,231.20
2023-05-10T08:33:31.273Z,231.65
2023-05-10T08:34:30.273Z,230.15
2023-05-10T08:35:30.276Z,227.80
2023-05-10T08:36:30.260Z,224.33
2023-05-10T08:37:30.236Z,227.31
2023-05-10T08:38:30.255Z,223.38
2023-05-10T08:39:30.978Z,228.42
2023-05-10T08:40:33.482Z,225.61
2023-05-10T08:41:30.309Z,225.83
2023-05-10T08:42:31.203Z,226.11
2023-05-10T08:43:30.277Z,225.97
2023-05-10T08:45:30.605Z,225.89
2023-05-10T08:46:31.229Z,225.83
2023-05-10T08:47:30.229Z,225.63
2023-05-10T08:48:30.196Z,222.57
2023-05-10T08:49:30.154Z,221.56
2023-05-10T08:50:30.287Z,220.67
2023-05-10T08:51:30.137Z,218.20
2023-05-10T08:52:30.132Z,220.72
2023-05-10T08:53:30.117Z,219.02
2023-05-10T08:54:30.435Z,217.15
2023-05-10T08:55:30.285Z,216.71
2023-05-10T08:56:30.250Z,216.75
2023-05-10T08:57:30.306Z,215.78
2023-05-10T08:58:30.793Z,218.24
2023-05-10T08:59:30.425Z,215.02
2023-05-10T09:00:30.472Z,211.56
2023-05-10T09:01:30.577Z,212.61
2023-05-10T09:02:30.593Z,212.62
2023-05-10T09:03:30.628Z,215.73
2023-05-10T09:04:30.802Z,214.39
2023-05-10T09:05:30.781Z,212.75
2023-05-10T09:06:30.791Z,210.95
2023-05-10T09:07:30.859Z,211.75
2023-05-10T09:08:30.899Z,212.18
2023-05-10T09:09:31.311Z,210.60
2023-05-10T09:10:31.007Z,210.37
2023-05-10T09:11:34.273Z,209.44
2023-05-10T09:12:31.062Z,209.74
2023-05-10T09:13:31.047Z,209.93
2023-05-10T09:14:31.031Z,210.31
2023-05-10T09:15:31.300Z,208.75
2023-05-10T09:16:31.033Z,209.67
2023-05-10T09:17:31.093Z,207.47
2023-05-10T09:18:31.011Z,209.71
2023-05-10T09:19:30.999Z,208.75
2023-05-10T09:20:31.301Z,208.14
2023-05-10T09:21:30.993Z,207.29
2023-05-10T09:22:31.046Z,208.62
2023-05-10T09:23:30.984Z,207.00
2023-05-10T09:24:30.964Z,205.49
2023-05-10T09:25:31.305Z,206.79
2023-05-10T09:26:30.955Z,205.11
2023-05-10T09:27:30.972Z,205.01
2023-05-10T09:28:30.945Z,206.92
2023-05-10T09:29:31.300Z,215.77
2023-05-10T09:30:30.928Z,216.93
2023-05-10T09:31:30.966Z,187.69
2023-05-10T09:32:30.914Z,153.46
2023-05-10T09:33:46.578Z,147.09
2023-05-10T09:34:31.306Z,147.63
2023-05-10T09:35:31.300Z,149.37
2023-05-10T09:36:30.879Z,149.38
2023-05-10T09:37:30.879Z,158.00
2023-05-10T09:38:31.310Z,170.13
2023-05-10T09:39:30.863Z,161.17
2023-05-10T09:40:30.850Z,148.09
2023-05-10T09:41:30.847Z,144.91
2023-05-10T09:42:30.855Z,136.51
2023-05-10T09:43:31.340Z,146.62
2023-05-10T09:44:30.824Z,177.08
2023-05-10T09:45:31.308Z,201.45
2023-05-10T09:46:30.850Z,224.00
2023-05-10T09:47:30.820Z,235.03
2023-05-10T09:48:30.794Z,248.37
2023-05-10T09:49:30.828Z,247.65
2023-05-10T09:50:30.784Z,249.76
2023-05-10T09:51:30.787Z,249.68
2023-05-10T09:52:30.768Z,247.02
2023-05-10T09:53:30.814Z,249.76
2023-05-10T09:54:30.788Z,248.55
2023-05-10T09:55:30.752Z,248.90
2023-05-10T09:56:30.822Z,247.22
2023-05-10T09:57:31.869Z,250.00
2023-05-10T09:58:46.345Z,248.12
2023-05-10T09:59:30.714Z,248.58
2023-05-10T10:00:30.820Z,249.92
2023-05-10T10:01:30.747Z,252.91
2023-05-10T10:02:30.760Z,258.57
2023-05-10T10:03:30.687Z,266.84
2023-05-10T10:04:30.742Z,250.00
2023-05-10T10:05:30.860Z,250.00
2023-05-10T10:06:30.881Z,250.00
2023-05-10T10:07:30.687Z,249.47
2023-05-10T10:08:30.682Z,249.41
2023-05-10T10:09:30.658Z,248.43
2023-05-10T10:10:30.824Z,249.05
2023-05-10T10:11:30.632Z,250.45
2023-05-10T10:12:30.640Z,249.15
2023-05-10T10:13:30.676Z,249.18
2023-05-10T10:14:30.613Z,248.91
2023-05-10T10:15:30.829Z,249.23
2023-05-10T10:16:30.633Z,249.55
2023-05-10T10:17:30.669Z,249.72
2023-05-10T10:18:30.880Z,249.26
2023-05-10T10:19:30.651Z,249.57
2023-05-10T10:20:30.852Z,250.00
2023-05-10T10:21:30.690Z,250.00
2023-05-10T10:22:30.684Z,249.93
2023-05-10T10:23:30.669Z,249.70
2023-05-10T10:24:30.714Z,249.80
2023-05-10T10:25:30.732Z,249.57
2023-05-10T10:26:30.865Z,248.89
2023-05-10T10:27:30.697Z,250.00
2023-05-10T10:28:30.681Z,250.00
2023-05-10T10:29:30.662Z,249.23
2023-05-10T10:30:30.667Z,247.12
2023-05-10T10:31:30.859Z,244.72
2023-05-10T10:32:30.727Z,243.15
2023-05-10T10:33:30.716Z,243.91
2023-05-10T10:34:30.667Z,243.32
2023-05-10T10:35:30.659Z,242.89
2023-05-10T10:36:30.832Z,243.47
2023-05-10T10:37:30.665Z,244.20
2023-05-10T10:38:30.638Z,245.23
2023-05-10T10:39:30.836Z,244.72
2023-05-10T10:40:32.056Z,247.59
2023-05-10T10:41:30.839Z,247.81
2023-05-10T10:42:30.684Z,248.27
2023-05-10T10:43:30.631Z,249.10
2023-05-10T10:44:30.604Z,250.92
2023-05-10T10:45:30.594Z,253.16
2023-05-10T10:46:30.629Z,248.78
2023-05-10T10:47:30.665Z,249.31
2023-05-10T10:48:30.579Z,246.75
2023-05-10T10:49:30.566Z,246.77
2023-05-10T10:50:30.584Z,248.21
2023-05-10T10:51:30.593Z,247.69
2023-05-10T10:52:30.552Z,249.19
2023-05-10T10:53:30.654Z,249.32
2023-05-10T10:54:30.576Z,249.43
2023-05-10T10:55:30.647Z,247.92
2023-05-10T10:56:30.666Z,249.87
2023-05-10T10:57:30.889Z,249.55
2023-05-10T10:58:30.765Z,248.80
2023-05-10T10:59:30.823Z,248.59
2023-05-10T11:00:30.877Z,250.00
2023-05-10T11:01:31.051Z,249.82
2023-05-10T11:02:31.404Z,248.76
2023-05-10T11:03:31.502Z,249.40
2023-05-10T11:04:31.151Z,249.73
2023-05-10T11:05:31.180Z,250.00
2023-05-10T11:06:31.266Z,248.99
2023-05-10T11:07:31.297Z,248.40
2023-05-10T11:08:31.361Z,246.68
2023-05-10T11:09:31.917Z,245.77
2023-05-10T11:10:31.481Z,245.66
2023-05-10T11:11:31.553Z,246.57
2023-05-10T11:12:31.613Z,245.20
2023-05-10T11:13:31.652Z,246.51
2023-05-10T11:14:31.711Z,245.04
2023-05-10T11:15:31.739Z,244.78
2023-05-10T11:16:31.886Z,244.11
2023-05-10T11:17:31.813Z,244.20
2023-05-10T11:18:31.882Z,244.82
2023-05-10T11:19:31.798Z,243.91
2023-05-10T11:20:31.844Z,243.71
2023-05-10T11:21:31.817Z,243.90
2023-05-10T11:22:31.828Z,243.83
2023-05-10T11:23:31.856Z,243.81
2023-05-10T11:24:31.811Z,242.16
2023-05-10T11:25:31.839Z,242.35
2023-05-10T11:26:31.797Z,242.26
2023-05-10T11:27:31.791Z,240.71
2023-05-10T11:28:31.784Z,240.69
2023-05-10T11:29:31.787Z,241.91
2023-05-10T11:30:31.823Z,240.58
2023-05-10T11:31:31.808Z,239.40
2023-05-10T11:32:31.852Z,238.61
2023-05-10T11:33:31.796Z,238.56
2023-05-10T11:34:31.775Z,238.99
2023-05-10T11:35:31.790Z,237.93
2023-05-10T11:36:31.779Z,237.35
2023-05-10T11:37:31.776Z,237.87
2023-05-10T11:38:31.784Z,235.06
2023-05-10T11:39:31.780Z,235.38
2023-05-10T11:40:31.791Z,235.25
2023-05-10T11:41:31.836Z,234.81
2023-05-10T11:42:31.810Z,234.12
2023-05-10T11:43:31.823Z,233.43
2023-05-10T11:44:31.828Z,233.34
2023-05-10T11:45:31.848Z,233.22
2023-05-10T11:46:31.890Z,232.64
2023-05-10T11:47:31.844Z,231.58
2023-05-10T11:48:31.826Z,231.44
2023-05-10T11:49:31.824Z,231.86
2023-05-10T11:50:31.830Z,230.45
2023-05-10T11:51:31.836Z,231.50
2023-05-10T11:52:31.854Z,231.43
2023-05-10T11:53:31.871Z,229.58
2023-05-10T11:54:31.862Z,230.17
2023-05-10T11:55:31.876Z,227.81
2023-05-10T11:56:31.911Z,227.46
2023-05-10T11:57:32.043Z,228.00
2023-05-10T11:58:32.367Z,227.65
2023-05-10T11:59:31.946Z,229.66
2023-05-10T12:00:31.933Z,229.02
2023-05-10T12:01:32.364Z,230.70
2023-05-10T12:02:32.028Z,232.71
2023-05-10T12:03:32.235Z,234.98
2023-05-10T12:04:32.038Z,233.85
2023-05-10T12:05:32.013Z,233.50
2023-05-10T12:06:32.216Z,235.09
2023-05-10T12:07:32.065Z,232.37
2023-05-10T12:08:32.088Z,231.40
2023-05-10T12:09:43.307Z,230.76
2023-05-10T12:10:32.083Z,230.82
2023-05-10T12:11:32.077Z,231.47
2023-05-10T12:12:32.071Z,230.80
2023-05-10T12:13:32.080Z,230.54
2023-05-10T12:14:32.080Z,230.33
2023-05-10T12:15:32.041Z,228.33
2023-05-10T12:16:32.109Z,229.08
2023-05-10T12:17:32.414Z,227.29
2023-05-10T12:18:33.027Z,226.44
2023-05-10T12:19:32.011Z,227.47
2023-05-10T12:20:32.059Z,226.13
2023-05-10T12:21:31.997Z,226.08
2023-05-10T12:22:32.001Z,225.35
2023-05-10T12:23:31.987Z,224.90
2023-05-10T12:24:31.986Z,223.24
2023-05-10T12:25:31.978Z,223.49
2023-05-10T12:26:31.960Z,224.86
2023-05-10T12:27:31.959Z,221.93
2023-05-10T12:28:31.946Z,221.49
2023-05-10T12:29:31.972Z,222.53
2023-05-10T12:30:31.949Z,220.15
2023-05-10T12:31:31.936Z,220.74
2023-05-10T12:32:31.939Z,219.80
2023-05-10T12:33:31.919Z,218.69
2023-05-10T12:34:31.934Z,217.53
2023-05-10T12:35:31.903Z,218.79
2023-05-10T12:36:31.899Z,216.62
2023-05-10T12:37:31.909Z,217.18
2023-05-10T12:38:32.054Z,218.30
2023-05-10T12:39:31.961Z,217.25
2023-05-10T12:40:31.995Z,216.74
2023-05-10T12:41:31.988Z,215.48